sensor_id;sensor_type;location;lat;lon;timestamp;temperature;humidity
12726;DHT22;6427;49.754;6.106;2024-01-25T00:02:21;10.60;99.90
12726;DHT22;6427;49.754;6.106;2024-01-25T00:04:49;10.90;99.90
12726;DHT22;6427;49.754;6.106;2024-01-25T00:07:17;10.90;99.90
12726;DHT22;6427;49.754;6.106;2024-01-25T00:09:44;10.80;99.90
12726;DHT22;6427;49.754;6.106;2024-01-25T00:12:13;10.60;99.90
12726;DHT22;6427;49.754;6.106;2024-01-25T00:14:41;10.60;99.90
12726;DHT22;6427;49.754;6.106;2024-01-25T00:17:09;10.60;99.90
12726;DHT22;6427;49.754;6.106;2024-01-25T00:19:37;10.80;99.90
12726;DHT22;6427;49.754;6.106;2024-01-25T00:22:05;10.90;99.90
12726;DHT22;6427;49.754;6.106;2024-01-25T00:24:32;10.80;99.90
12726;DHT22;6427;49.754;6.106;2024-01-25T00:27:00;10.70;99.90
12726;DHT22;6427;49.754;6.106;2024-01-25T00:29:30;10.50;99.90
12726;DHT22;6427;49.754;6.106;2024-01-25T00:31:56;10.50;99.90
12726;DHT22;6427;49.754;6.106;2024-01-25T00:34:24;10.80;99.90
12726;DHT22;6427;49.754;6.106;2024-01-25T00:36:52;10.80;99.90
12726;DHT22;6427;49.754;6.106;2024-01-25T00:39:20;10.70;99.90
12726;DHT22;6427;49.754;6.106;2024-01-25T00:41:47;10.60;99.90
12726;DHT22;6427;49.754;6.106;2024-01-25T00:44:15;10.90;99.90
12726;DHT22;6427;49.754;6.106;2024-01-25T00:46:43;10.60;99.90
12726;DHT22;6427;49.754;6.106;2024-01-25T00:49:11;10.60;99.90
12726;DHT22;6427;49.754;6.106;2024-01-25T00:51:39;10.50;99.90
12726;DHT22;6427;49.754;6.106;2024-01-25T00:54:07;10.40;99.90
12726;DHT22;6427;49.754;6.106;2024-01-25T00:56:35;10.70;99.90
12726;DHT22;6427;49.754;6.106;2024-01-25T00:59:03;10.70;99.90
12726;DHT22;6427;49.754;6.106;2024-01-25T01:01:30;10.60;99.90
12726;DHT22;6427;49.754;6.106;2024-01-25T01:03:58;10.40;99.90
12726;DHT22;6427;49.754;6.106;2024-01-25T01:06:26;10.40;99.90
12726;DHT22;6427;49.754;6.106;2024-01-25T01:08:53;10.30;99.90
12726;DHT22;6427;49.754;6.106;2024-01-25T01:11:21;10.20;99.90
12726;DHT22;6427;49.754;6.106;2024-01-25T01:13:49;10.00;99.90
12726;DHT22;6427;49.754;6.106;2024-01-25T01:16:17;10.00;99.90
12726;DHT22;6427;49.754;6.106;2024-01-25T01:18:44;9.90;99.90
12726;DHT22;6427;49.754;6.106;2024-01-25T01:21:13;9.80;99.90
12726;DHT22;6427;49.754;6.106;2024-01-25T01:23:40;9.80;99.90
12726;DHT22;6427;49.754;6.106;2024-01-25T01:26:09;9.70;99.90
12726;DHT22;6427;49.754;6.106;2024-01-25T01:28:37;9.60;99.90
12726;DHT22;6427;49.754;6.106;2024-01-25T01:31:05;9.60;99.90
12726;DHT22;6427;49.754;6.106;2024-01-25T01:33:32;9.50;99.90
12726;DHT22;6427;49.754;6.106;2024-01-25T01:36:00;9.50;99.90
12726;DHT22;6427;49.754;6.106;2024-01-25T01:38:28;9.40;99.90
12726;DHT22;6427;49.754;6.106;2024-01-25T01:40:56;9.40;99.90
12726;DHT22;6427;49.754;6.106;2024-01-25T01:43:23;9.40;99.90
12726;DHT22;6427;49.754;6.106;2024-01-25T01:45:51;9.30;99.90
12726;DHT22;6427;49.754;6.106;2024-01-25T01:48:19;9.20;99.90
12726;DHT22;6427;49.754;6.106;2024-01-25T01:50:46;9.20;99.90
12726;DHT22;6427;49.754;6.106;2024-01-25T01:53:14;9.50;99.90
12726;DHT22;6427;49.754;6.106;2024-01-25T01:55:41;9.40;99.90
12726;DHT22;6427;49.754;6.106;2024-01-25T01:58:09;9.30;99.90
12726;DHT22;6427;49.754;6.106;2024-01-25T02:00:37;9.20;99.90
12726;DHT22;6427;49.754;6.106;2024-01-25T02:03:05;9.20;99.90
12726;DHT22;6427;49.754;6.106;2024-01-25T02:05:33;9.10;99.90
12726;DHT22;6427;49.754;6.106;2024-01-25T02:08:00;9.40;99.90
12726;DHT22;6427;49.754;6.106;2024-01-25T02:10:28;9.30;99.90
12726;DHT22;6427;49.754;6.106;2024-01-25T02:12:55;9.50;99.90
12726;DHT22;6427;49.754;6.106;2024-01-25T02:15:23;9.30;99.90
12726;DHT22;6427;49.754;6.106;2024-01-25T02:17:50;9.20;99.90
12726;DHT22;6427;49.754;6.106;2024-01-25T02:20:18;9.10;99.90
12726;DHT22;6427;49.754;6.106;2024-01-25T02:22:46;9.30;99.90
12726;DHT22;6427;49.754;6.106;2024-01-25T02:25:13;9.20;99.90
12726;DHT22;6427;49.754;6.106;2024-01-25T02:27:41;9.50;99.90
12726;DHT22;6427;49.754;6.106;2024-01-25T02:30:08;9.60;99.90
12726;DHT22;6427;49.754;6.106;2024-01-25T02:32:36;9.40;99.90
12726;DHT22;6427;49.754;6.106;2024-01-25T02:35:04;9.30;99.90
12726;DHT22;6427;49.754;6.106;2024-01-25T02:37:31;9.10;99.90
12726;DHT22;6427;49.754;6.106;2024-01-25T02:39:59;9.40;99.90
12726;DHT22;6427;49.754;6.106;2024-01-25T02:42:27;9.20;99.90
12726;DHT22;6427;49.754;6.106;2024-01-25T02:44:55;9.10;99.90
12726;DHT22;6427;49.754;6.106;2024-01-25T02:47:23;9.00;99.90
12726;DHT22;6427;49.754;6.106;2024-01-25T02:49:51;9.00;99.90
12726;DHT22;6427;49.754;6.106;2024-01-25T02:52:19;8.90;99.90
12726;DHT22;6427;49.754;6.106;2024-01-25T02:54:47;8.90;99.90
12726;DHT22;6427;49.754;6.106;2024-01-25T02:57:14;8.90;99.90
12726;DHT22;6427;49.754;6.106;2024-01-25T02:59:42;9.20;99.90
12726;DHT22;6427;49.754;6.106;2024-01-25T03:02:09;9.10;99.90
12726;DHT22;6427;49.754;6.106;2024-01-25T03:04:37;9.00;99.90
12726;DHT22;6427;49.754;6.106;2024-01-25T03:07:05;9.20;99.90
12726;DHT22;6427;49.754;6.106;2024-01-25T03:09:32;9.10;99.90
12726;DHT22;6427;49.754;6.106;2024-01-25T03:12:00;8.90;99.90
12726;DHT22;6427;49.754;6.106;2024-01-25T03:14:27;8.80;99.90
12726;DHT22;6427;49.754;6.106;2024-01-25T03:16:55;8.70;99.90
12726;DHT22;6427;49.754;6.106;2024-01-25T03:19:24;8.60;99.90
12726;DHT22;6427;49.754;6.106;2024-01-25T03:21:51;8.60;99.90
12726;DHT22;6427;49.754;6.106;2024-01-25T03:24:19;8.60;99.90
12726;DHT22;6427;49.754;6.106;2024-01-25T03:26:46;8.80;99.90
12726;DHT22;6427;49.754;6.106;2024-01-25T03:29:15;8.60;99.90
12726;DHT22;6427;49.754;6.106;2024-01-25T03:31:42;8.50;99.90
12726;DHT22;6427;49.754;6.106;2024-01-25T03:34:10;8.40;99.90
12726;DHT22;6427;49.754;6.106;2024-01-25T03:36:37;8.60;99.90
12726;DHT22;6427;49.754;6.106;2024-01-25T03:39:05;8.50;99.90
12726;DHT22;6427;49.754;6.106;2024-01-25T03:41:33;8.40;99.90
12726;DHT22;6427;49.754;6.106;2024-01-25T03:44:00;8.20;99.90
12726;DHT22;6427;49.754;6.106;2024-01-25T03:46:29;8.00;99.90
12726;DHT22;6427;49.754;6.106;2024-01-25T03:48:56;8.00;99.90
12726;DHT22;6427;49.754;6.106;2024-01-25T03:51:24;8.20;99.90
12726;DHT22;6427;49.754;6.106;2024-01-25T03:53:53;8.10;99.90
12726;DHT22;6427;49.754;6.106;2024-01-25T03:56:20;8.10;99.90
12726;DHT22;6427;49.754;6.106;2024-01-25T03:58:49;7.90;99.90
12726;DHT22;6427;49.754;6.106;2024-01-25T04:01:16;7.90;99.90
12726;DHT22;6427;49.754;6.106;2024-01-25T04:03:44;7.80;99.90
12726;DHT22;6427;49.754;6.106;2024-01-25T04:06:12;8.10;99.90
12726;DHT22;6427;49.754;6.106;2024-01-25T04:08:39;8.00;99.90
12726;DHT22;6427;49.754;6.106;2024-01-25T04:11:07;7.80;99.90
12726;DHT22;6427;49.754;6.106;2024-01-25T04:13:35;7.70;99.90
12726;DHT22;6427;49.754;6.106;2024-01-25T04:16:02;7.60;99.90
12726;DHT22;6427;49.754;6.106;2024-01-25T04:18:30;7.50;99.90
12726;DHT22;6427;49.754;6.106;2024-01-25T04:20:58;7.50;99.90
12726;DHT22;6427;49.754;6.106;2024-01-25T04:23:25;7.40;99.90
12726;DHT22;6427;49.754;6.106;2024-01-25T04:25:53;7.40;99.90
12726;DHT22;6427;49.754;6.106;2024-01-25T04:28:21;7.30;99.90
12726;DHT22;6427;49.754;6.106;2024-01-25T04:30:49;7.20;99.90
12726;DHT22;6427;49.754;6.106;2024-01-25T04:33:17;7.20;99.90
12726;DHT22;6427;49.754;6.106;2024-01-25T04:35:44;7.10;99.90
12726;DHT22;6427;49.754;6.106;2024-01-25T04:38:12;7.10;99.90
12726;DHT22;6427;49.754;6.106;2024-01-25T04:40:39;7.10;99.90
12726;DHT22;6427;49.754;6.106;2024-01-25T04:43:07;7.00;99.90
12726;DHT22;6427;49.754;6.106;2024-01-25T04:45:35;7.00;99.90
12726;DHT22;6427;49.754;6.106;2024-01-25T04:48:02;7.00;99.90
12726;DHT22;6427;49.754;6.106;2024-01-25T04:50:30;7.30;99.90
12726;DHT22;6427;49.754;6.106;2024-01-25T04:52:57;7.20;99.90
12726;DHT22;6427;49.754;6.106;2024-01-25T04:55:25;7.40;99.90
12726;DHT22;6427;49.754;6.106;2024-01-25T04:57:53;7.60;99.90
12726;DHT22;6427;49.754;6.106;2024-01-25T05:00:23;7.50;99.90
12726;DHT22;6427;49.754;6.106;2024-01-25T05:02:50;7.30;99.90
12726;DHT22;6427;49.754;6.106;2024-01-25T05:05:19;7.40;99.90
12726;DHT22;6427;49.754;6.106;2024-01-25T05:07:46;7.40;99.90
12726;DHT22;6427;49.754;6.106;2024-01-25T05:10:14;7.30;99.90
12726;DHT22;6427;49.754;6.106;2024-01-25T05:12:41;7.10;99.90
12726;DHT22;6427;49.754;6.106;2024-01-25T05:15:10;6.90;99.90
12726;DHT22;6427;49.754;6.106;2024-01-25T05:17:37;6.90;99.90
12726;DHT22;6427;49.754;6.106;2024-01-25T05:20:06;6.70;99.90
12726;DHT22;6427;49.754;6.106;2024-01-25T05:22:34;6.80;99.90
12726;DHT22;6427;49.754;6.106;2024-01-25T05:25:01;6.70;99.90
12726;DHT22;6427;49.754;6.106;2024-01-25T05:27:29;6.70;99.90
12726;DHT22;6427;49.754;6.106;2024-01-25T05:29:56;6.60;99.90
12726;DHT22;6427;49.754;6.106;2024-01-25T05:32:24;6.60;99.90
12726;DHT22;6427;49.754;6.106;2024-01-25T05:34:52;6.90;99.90
12726;DHT22;6427;49.754;6.106;2024-01-25T05:37:19;6.90;99.90
12726;DHT22;6427;49.754;6.106;2024-01-25T05:39:48;6.70;99.90
12726;DHT22;6427;49.754;6.106;2024-01-25T05:42:15;6.70;99.90
12726;DHT22;6427;49.754;6.106;2024-01-25T05:44:43;6.70;99.90
12726;DHT22;6427;49.754;6.106;2024-01-25T05:47:10;6.70;99.90
12726;DHT22;6427;49.754;6.106;2024-01-25T05:49:38;6.60;99.90
12726;DHT22;6427;49.754;6.106;2024-01-25T05:52:06;6.50;99.90
12726;DHT22;6427;49.754;6.106;2024-01-25T05:54:34;6.50;99.90
12726;DHT22;6427;49.754;6.106;2024-01-25T05:57:01;6.60;99.90
12726;DHT22;6427;49.754;6.106;2024-01-25T05:59:29;6.50;99.90
12726;DHT22;6427;49.754;6.106;2024-01-25T06:01:57;6.60;99.90
12726;DHT22;6427;49.754;6.106;2024-01-25T06:04:24;6.60;99.90
12726;DHT22;6427;49.754;6.106;2024-01-25T06:06:52;6.60;99.90
12726;DHT22;6427;49.754;6.106;2024-01-25T06:09:19;6.60;99.90
12726;DHT22;6427;49.754;6.106;2024-01-25T06:11:47;6.90;99.90
12726;DHT22;6427;49.754;6.106;2024-01-25T06:14:15;6.80;99.90
12726;DHT22;6427;49.754;6.106;2024-01-25T06:16:43;6.90;99.90
12726;DHT22;6427;49.754;6.106;2024-01-25T06:19:11;6.90;99.90
12726;DHT22;6427;49.754;6.106;2024-01-25T06:21:39;7.00;99.90
12726;DHT22;6427;49.754;6.106;2024-01-25T06:24:06;7.00;99.90
12726;DHT22;6427;49.754;6.106;2024-01-25T06:26:35;7.30;99.90
12726;DHT22;6427;49.754;6.106;2024-01-25T06:29:02;7.30;99.90
12726;DHT22;6427;49.754;6.106;2024-01-25T06:31:30;7.10;99.90
12726;DHT22;6427;49.754;6.106;2024-01-25T06:33:58;6.90;99.90
12726;DHT22;6427;49.754;6.106;2024-01-25T06:36:25;6.70;99.90
12726;DHT22;6427;49.754;6.106;2024-01-25T06:38:54;6.80;99.90
12726;DHT22;6427;49.754;6.106;2024-01-25T06:41:21;6.80;99.90
12726;DHT22;6427;49.754;6.106;2024-01-25T06:43:49;6.60;99.90
12726;DHT22;6427;49.754;6.106;2024-01-25T06:46:16;6.80;99.90
12726;DHT22;6427;49.754;6.106;2024-01-25T06:48:44;6.60;99.90
12726;DHT22;6427;49.754;6.106;2024-01-25T06:51:11;6.40;99.90
12726;DHT22;6427;49.754;6.106;2024-01-25T06:53:39;6.30;99.90
12726;DHT22;6427;49.754;6.106;2024-01-25T06:56:07;6.50;99.90
12726;DHT22;6427;49.754;6.106;2024-01-25T06:58:34;6.30;99.90
12726;DHT22;6427;49.754;6.106;2024-01-25T07:01:03;6.10;99.90
12726;DHT22;6427;49.754;6.106;2024-01-25T07:03:30;6.00;99.90
12726;DHT22;6427;49.754;6.106;2024-01-25T07:05:59;5.90;99.90
12726;DHT22;6427;49.754;6.106;2024-01-25T07:08:27;5.90;99.90
12726;DHT22;6427;49.754;6.106;2024-01-25T07:10:54;5.90;99.90
12726;DHT22;6427;49.754;6.106;2024-01-25T07:13:22;5.80;99.90
12726;DHT22;6427;49.754;6.106;2024-01-25T07:15:50;6.10;99.90
12726;DHT22;6427;49.754;6.106;2024-01-25T07:18:17;6.40;99.90
12726;DHT22;6427;49.754;6.106;2024-01-25T07:20:45;6.60;99.90
12726;DHT22;6427;49.754;6.106;2024-01-25T07:23:12;6.70;99.90
12726;DHT22;6427;49.754;6.106;2024-01-25T07:25:40;6.50;99.90
12726;DHT22;6427;49.754;6.106;2024-01-25T07:28:08;6.30;99.90
12726;DHT22;6427;49.754;6.106;2024-01-25T07:30:35;6.20;99.90
12726;DHT22;6427;49.754;6.106;2024-01-25T07:33:03;6.10;99.90
12726;DHT22;6427;49.754;6.106;2024-01-25T07:35:31;6.00;99.90
12726;DHT22;6427;49.754;6.106;2024-01-25T07:37:58;6.30;99.90
12726;DHT22;6427;49.754;6.106;2024-01-25T07:40:26;6.00;99.90
12726;DHT22;6427;49.754;6.106;2024-01-25T07:42:54;6.00;99.90
12726;DHT22;6427;49.754;6.106;2024-01-25T07:45:22;5.90;99.90
12726;DHT22;6427;49.754;6.106;2024-01-25T07:47:51;5.90;99.90
12726;DHT22;6427;49.754;6.106;2024-01-25T07:50:18;5.80;99.90
12726;DHT22;6427;49.754;6.106;2024-01-25T07:52:47;5.80;99.90
12726;DHT22;6427;49.754;6.106;2024-01-25T07:55:14;5.80;99.90
12726;DHT22;6427;49.754;6.106;2024-01-25T07:57:43;6.00;99.90
12726;DHT22;6427;49.754;6.106;2024-01-25T08:00:10;6.00;99.90
12726;DHT22;6427;49.754;6.106;2024-01-25T08:02:38;6.00;99.90
12726;DHT22;6427;49.754;6.106;2024-01-25T08:05:06;5.90;99.90
12726;DHT22;6427;49.754;6.106;2024-01-25T08:07:33;5.90;99.90
12726;DHT22;6427;49.754;6.106;2024-01-25T08:10:01;5.90;99.90
12726;DHT22;6427;49.754;6.106;2024-01-25T08:12:28;5.80;99.90
12726;DHT22;6427;49.754;6.106;2024-01-25T08:14:56;5.90;99.90
12726;DHT22;6427;49.754;6.106;2024-01-25T08:17:23;5.90;99.90
12726;DHT22;6427;49.754;6.106;2024-01-25T08:19:51;5.90;99.90
12726;DHT22;6427;49.754;6.106;2024-01-25T08:22:19;5.90;99.90
12726;DHT22;6427;49.754;6.106;2024-01-25T08:24:46;6.30;99.90
12726;DHT22;6427;49.754;6.106;2024-01-25T08:27:14;6.30;99.90
12726;DHT22;6427;49.754;6.106;2024-01-25T08:29:41;6.30;99.90
12726;DHT22;6427;49.754;6.106;2024-01-25T08:32:09;6.20;99.90
12726;DHT22;6427;49.754;6.106;2024-01-25T08:34:37;6.30;99.90
12726;DHT22;6427;49.754;6.106;2024-01-25T08:37:04;6.30;99.90
12726;DHT22;6427;49.754;6.106;2024-01-25T08:39:32;6.30;99.90
12726;DHT22;6427;49.754;6.106;2024-01-25T08:41:59;6.40;99.90
12726;DHT22;6427;49.754;6.106;2024-01-25T08:44:30;6.40;99.90
12726;DHT22;6427;49.754;6.106;2024-01-25T08:46:58;6.50;99.90
12726;DHT22;6427;49.754;6.106;2024-01-25T08:49:26;6.50;99.90
12726;DHT22;6427;49.754;6.106;2024-01-25T08:51:54;6.50;99.90
12726;DHT22;6427;49.754;6.106;2024-01-25T08:54:22;6.60;99.90
12726;DHT22;6427;49.754;6.106;2024-01-25T08:56:50;7.00;99.90
12726;DHT22;6427;49.754;6.106;2024-01-25T08:59:18;7.00;99.90
12726;DHT22;6427;49.754;6.106;2024-01-25T09:01:46;7.00;99.90
12726;DHT22;6427;49.754;6.106;2024-01-25T09:04:13;6.90;99.90
12726;DHT22;6427;49.754;6.106;2024-01-25T09:06:42;7.00;99.90
12726;DHT22;6427;49.754;6.106;2024-01-25T09:09:09;7.00;99.90
12726;DHT22;6427;49.754;6.106;2024-01-25T09:11:38;7.00;99.90
12726;DHT22;6427;49.754;6.106;2024-01-25T09:14:06;7.00;99.90
12726;DHT22;6427;49.754;6.106;2024-01-25T09:16:34;7.00;99.90
12726;DHT22;6427;49.754;6.106;2024-01-25T09:19:02;7.40;99.90
12726;DHT22;6427;49.754;6.106;2024-01-25T09:21:30;7.40;99.90
12726;DHT22;6427;49.754;6.106;2024-01-25T09:23:58;7.40;99.90
12726;DHT22;6427;49.754;6.106;2024-01-25T09:26:26;7.40;99.90
12726;DHT22;6427;49.754;6.106;2024-01-25T09:28:53;7.80;99.90
12726;DHT22;6427;49.754;6.106;2024-01-25T09:31:21;8.10;99.90
12726;DHT22;6427;49.754;6.106;2024-01-25T09:33:48;8.00;99.90
12726;DHT22;6427;49.754;6.106;2024-01-25T09:36:16;7.90;99.90
12726;DHT22;6427;49.754;6.106;2024-01-25T09:38:44;7.80;99.90
12726;DHT22;6427;49.754;6.106;2024-01-25T09:41:11;7.80;99.90
12726;DHT22;6427;49.754;6.106;2024-01-25T09:43:39;8.20;99.90
12726;DHT22;6427;49.754;6.106;2024-01-25T09:46:06;8.10;99.90
12726;DHT22;6427;49.754;6.106;2024-01-25T09:48:35;8.30;99.90
12726;DHT22;6427;49.754;6.106;2024-01-25T09:51:02;8.30;99.90
12726;DHT22;6427;49.754;6.106;2024-01-25T09:53:30;8.20;99.90
12726;DHT22;6427;49.754;6.106;2024-01-25T09:56:00;8.20;99.90
12726;DHT22;6427;49.754;6.106;2024-01-25T09:58:25;8.20;99.90
12726;DHT22;6427;49.754;6.106;2024-01-25T10:00:53;8.20;99.90
12726;DHT22;6427;49.754;6.106;2024-01-25T10:03:21;8.10;99.90
12726;DHT22;6427;49.754;6.106;2024-01-25T10:05:49;8.50;99.90
12726;DHT22;6427;49.754;6.106;2024-01-25T10:08:17;8.50;99.90
12726;DHT22;6427;49.754;6.106;2024-01-25T10:10:45;8.80;99.90
12726;DHT22;6427;49.754;6.106;2024-01-25T10:13:14;8.70;99.90
12726;DHT22;6427;49.754;6.106;2024-01-25T10:15:41;8.70;99.90
12726;DHT22;6427;49.754;6.106;2024-01-25T10:18:09;9.00;99.90
12726;DHT22;6427;49.754;6.106;2024-01-25T10:20:37;8.90;99.90
12726;DHT22;6427;49.754;6.106;2024-01-25T10:25:42;8.80;99.90
12726;DHT22;6427;49.754;6.106;2024-01-25T10:28:09;8.80;99.90
12726;DHT22;6427;49.754;6.106;2024-01-25T10:30:37;9.10;99.90
12726;DHT22;6427;49.754;6.106;2024-01-25T10:33:04;9.10;99.90
12726;DHT22;6427;49.754;6.106;2024-01-25T10:35:32;9.10;99.90
12726;DHT22;6427;49.754;6.106;2024-01-25T10:38:00;9.10;99.90
12726;DHT22;6427;49.754;6.106;2024-01-25T10:40:28;9.40;99.90
12726;DHT22;6427;49.754;6.106;2024-01-25T10:42:56;9.30;99.90
12726;DHT22;6427;49.754;6.106;2024-01-25T10:45:24;9.30;99.90
12726;DHT22;6427;49.754;6.106;2024-01-25T10:47:52;9.60;99.90
12726;DHT22;6427;49.754;6.106;2024-01-25T10:50:21;9.50;99.90
12726;DHT22;6427;49.754;6.106;2024-01-25T10:52:48;9.50;99.90
12726;DHT22;6427;49.754;6.106;2024-01-25T10:55:16;9.50;99.90
12726;DHT22;6427;49.754;6.106;2024-01-25T10:57:44;9.40;99.90
12726;DHT22;6427;49.754;6.106;2024-01-25T11:00:12;9.70;99.90
12726;DHT22;6427;49.754;6.106;2024-01-25T11:02:40;9.70;99.90
12726;DHT22;6427;49.754;6.106;2024-01-25T11:05:14;9.70;99.90
12726;DHT22;6427;49.754;6.106;2024-01-25T11:07:44;9.60;99.90
12726;DHT22;6427;49.754;6.106;2024-01-25T11:10:15;9.60;99.90
12726;DHT22;6427;49.754;6.106;2024-01-25T11:12:51;9.90;99.90
12726;DHT22;6427;49.754;6.106;2024-01-25T11:15:21;9.80;99.90
12726;DHT22;6427;49.754;6.106;2024-01-25T11:17:54;9.70;99.90
12726;DHT22;6427;49.754;6.106;2024-01-25T11:20:22;9.70;99.90
12726;DHT22;6427;49.754;6.106;2024-01-25T11:23:01;10.00;99.90
12726;DHT22;6427;49.754;6.106;2024-01-25T11:25:20;9.90;99.90
12726;DHT22;6427;49.754;6.106;2024-01-25T11:27:50;10.20;99.90
12726;DHT22;6427;49.754;6.106;2024-01-25T11:30:18;10.10;99.90
12726;DHT22;6427;49.754;6.106;2024-01-25T11:32:46;10.00;99.90
12726;DHT22;6427;49.754;6.106;2024-01-25T11:35:13;10.30;99.90
12726;DHT22;6427;49.754;6.106;2024-01-25T11:37:45;10.10;99.90
12726;DHT22;6427;49.754;6.106;2024-01-25T11:40:10;10.00;99.90
12726;DHT22;6427;49.754;6.106;2024-01-25T11:42:38;10.00;99.90
12726;DHT22;6427;49.754;6.106;2024-01-25T11:45:05;10.00;99.90
12726;DHT22;6427;49.754;6.106;2024-01-25T11:47:33;9.90;99.90
12726;DHT22;6427;49.754;6.106;2024-01-25T11:50:02;9.90;99.90
12726;DHT22;6427;49.754;6.106;2024-01-25T11:52:29;9.90;99.90
12726;DHT22;6427;49.754;6.106;2024-01-25T11:54:56;10.20;99.90
12726;DHT22;6427;49.754;6.106;2024-01-25T11:57:24;10.20;99.90
12726;DHT22;6427;49.754;6.106;2024-01-25T11:59:52;10.10;99.90
12726;DHT22;6427;49.754;6.106;2024-01-25T12:02:21;10.10;99.90
12726;DHT22;6427;49.754;6.106;2024-01-25T12:04:49;10.10;99.90
12726;DHT22;6427;49.754;6.106;2024-01-25T12:07:17;10.10;99.90
12726;DHT22;6427;49.754;6.106;2024-01-25T12:09:44;10.10;99.90
12726;DHT22;6427;49.754;6.106;2024-01-25T12:12:12;10.10;99.90
12726;DHT22;6427;49.754;6.106;2024-01-25T12:14:40;10.10;99.90
12726;DHT22;6427;49.754;6.106;2024-01-25T12:17:07;10.10;99.90
12726;DHT22;6427;49.754;6.106;2024-01-25T12:19:35;10.50;99.90
12726;DHT22;6427;49.754;6.106;2024-01-25T12:22:03;10.40;99.90
12726;DHT22;6427;49.754;6.106;2024-01-25T12:24:31;10.40;99.90
12726;DHT22;6427;49.754;6.106;2024-01-25T12:26:58;10.40;99.90
12726;DHT22;6427;49.754;6.106;2024-01-25T12:29:26;10.40;99.90
12726;DHT22;6427;49.754;6.106;2024-01-25T12:31:54;10.40;99.90
12726;DHT22;6427;49.754;6.106;2024-01-25T12:34:21;10.40;99.90
12726;DHT22;6427;49.754;6.106;2024-01-25T12:36:49;10.40;99.90
12726;DHT22;6427;49.754;6.106;2024-01-25T12:39:16;10.40;99.90
12726;DHT22;6427;49.754;6.106;2024-01-25T12:41:45;10.40;99.90
12726;DHT22;6427;49.754;6.106;2024-01-25T12:44:12;10.70;99.90
12726;DHT22;6427;49.754;6.106;2024-01-25T12:46:40;10.70;99.90
12726;DHT22;6427;49.754;6.106;2024-01-25T12:49:08;10.60;99.90
12726;DHT22;6427;49.754;6.106;2024-01-25T12:51:36;10.60;99.90
12726;DHT22;6427;49.754;6.106;2024-01-25T12:54:03;10.60;99.90
12726;DHT22;6427;49.754;6.106;2024-01-25T12:56:31;10.60;99.90
12726;DHT22;6427;49.754;6.106;2024-01-25T12:58:58;10.60;99.90
12726;DHT22;6427;49.754;6.106;2024-01-25T13:01:26;10.70;99.90
12726;DHT22;6427;49.754;6.106;2024-01-25T13:03:54;11.10;99.90
12726;DHT22;6427;49.754;6.106;2024-01-25T13:06:23;11.10;99.90
12726;DHT22;6427;49.754;6.106;2024-01-25T13:08:51;11.00;99.90
12726;DHT22;6427;49.754;6.106;2024-01-25T13:11:18;11.00;99.90
12726;DHT22;6427;49.754;6.106;2024-01-25T13:13:46;11.00;99.90
12726;DHT22;6427;49.754;6.106;2024-01-25T13:16:14;11.00;99.90
12726;DHT22;6427;49.754;6.106;2024-01-25T13:18:42;11.00;99.90
12726;DHT22;6427;49.754;6.106;2024-01-25T13:21:09;11.00;99.90
12726;DHT22;6427;49.754;6.106;2024-01-25T13:23:37;11.00;99.90
12726;DHT22;6427;49.754;6.106;2024-01-25T13:26:05;11.00;99.90
12726;DHT22;6427;49.754;6.106;2024-01-25T13:28:33;11.00;99.90
12726;DHT22;6427;49.754;6.106;2024-01-25T13:31:00;11.00;99.90
12726;DHT22;6427;49.754;6.106;2024-01-25T13:33:28;11.00;99.90
12726;DHT22;6427;49.754;6.106;2024-01-25T13:35:56;11.00;99.90
12726;DHT22;6427;49.754;6.106;2024-01-25T13:38:23;11.00;99.90
12726;DHT22;6427;49.754;6.106;2024-01-25T13:40:51;11.00;99.90
12726;DHT22;6427;49.754;6.106;2024-01-25T13:43:19;11.30;99.90
12726;DHT22;6427;49.754;6.106;2024-01-25T13:45:48;11.30;99.90
12726;DHT22;6427;49.754;6.106;2024-01-25T13:48:15;11.30;99.90
12726;DHT22;6427;49.754;6.106;2024-01-25T13:50:44;11.50;99.90
12726;DHT22;6427;49.754;6.106;2024-01-25T13:53:11;11.50;99.90
12726;DHT22;6427;49.754;6.106;2024-01-25T13:55:39;11.40;99.90
12726;DHT22;6427;49.754;6.106;2024-01-25T13:58:06;11.30;99.90
12726;DHT22;6427;49.754;6.106;2024-01-25T14:00:34;11.20;99.90
12726;DHT22;6427;49.754;6.106;2024-01-25T14:03:02;11.50;99.90
12726;DHT22;6427;49.754;6.106;2024-01-25T14:05:29;11.40;99.90
12726;DHT22;6427;49.754;6.106;2024-01-25T14:07:57;11.40;99.90
12726;DHT22;6427;49.754;6.106;2024-01-25T14:13:01;11.20;99.90
12726;DHT22;6427;49.754;6.106;2024-01-25T14:15:29;11.20;99.90
12726;DHT22;6427;49.754;6.106;2024-01-25T14:17:57;11.50;99.90
12726;DHT22;6427;49.754;6.106;2024-01-25T14:20:24;11.40;99.90
12726;DHT22;6427;49.754;6.106;2024-01-25T14:22:52;11.60;99.90
12726;DHT22;6427;49.754;6.106;2024-01-25T14:25:19;11.50;99.90
12726;DHT22;6427;49.754;6.106;2024-01-25T14:27:47;11.30;99.90
12726;DHT22;6427;49.754;6.106;2024-01-25T14:30:15;11.30;99.90
12726;DHT22;6427;49.754;6.106;2024-01-25T14:32:42;11.20;99.90
12726;DHT22;6427;49.754;6.106;2024-01-25T14:35:11;11.00;99.90
12726;DHT22;6427;49.754;6.106;2024-01-25T14:37:38;11.00;99.90
12726;DHT22;6427;49.754;6.106;2024-01-25T14:40:06;11.00;99.90
12726;DHT22;6427;49.754;6.106;2024-01-25T14:42:34;10.90;99.90
12726;DHT22;6427;49.754;6.106;2024-01-25T14:45:03;10.90;99.90
12726;DHT22;6427;49.754;6.106;2024-01-25T14:47:33;10.90;99.90
12726;DHT22;6427;49.754;6.106;2024-01-25T14:50:01;10.90;99.90
12726;DHT22;6427;49.754;6.106;2024-01-25T14:52:29;10.90;99.90
12726;DHT22;6427;49.754;6.106;2024-01-25T14:54:56;10.90;99.90
12726;DHT22;6427;49.754;6.106;2024-01-25T14:57:24;10.90;99.90
12726;DHT22;6427;49.754;6.106;2024-01-25T14:59:51;10.80;99.90
12726;DHT22;6427;49.754;6.106;2024-01-25T15:02:19;10.90;99.90
12726;DHT22;6427;49.754;6.106;2024-01-25T15:04:47;10.90;99.90
12726;DHT22;6427;49.754;6.106;2024-01-25T15:07:16;10.90;99.90
12726;DHT22;6427;49.754;6.106;2024-01-25T15:09:43;10.90;99.90
12726;DHT22;6427;49.754;6.106;2024-01-25T15:12:11;10.80;99.90
12726;DHT22;6427;49.754;6.106;2024-01-25T15:14:38;10.80;99.90
12726;DHT22;6427;49.754;6.106;2024-01-25T15:17:06;11.20;99.90
12726;DHT22;6427;49.754;6.106;2024-01-25T15:19:34;11.10;99.90
12726;DHT22;6427;49.754;6.106;2024-01-25T15:22:03;11.00;99.90
12726;DHT22;6427;49.754;6.106;2024-01-25T15:24:31;11.00;99.90
12726;DHT22;6427;49.754;6.106;2024-01-25T15:26:59;10.90;99.90
12726;DHT22;6427;49.754;6.106;2024-01-25T15:29:27;11.20;99.90
12726;DHT22;6427;49.754;6.106;2024-01-25T15:31:55;11.20;99.90
12726;DHT22;6427;49.754;6.106;2024-01-25T15:34:22;11.10;99.90
12726;DHT22;6427;49.754;6.106;2024-01-25T15:36:50;11.00;99.90
12726;DHT22;6427;49.754;6.106;2024-01-25T15:39:18;11.00;99.90
12726;DHT22;6427;49.754;6.106;2024-01-25T15:41:45;10.90;99.90
12726;DHT22;6427;49.754;6.106;2024-01-25T15:44:13;10.80;99.90
12726;DHT22;6427;49.754;6.106;2024-01-25T15:46:40;10.80;99.90
12726;DHT22;6427;49.754;6.106;2024-01-25T15:49:08;10.70;99.90
12726;DHT22;6427;49.754;6.106;2024-01-25T15:51:36;11.00;99.90
12726;DHT22;6427;49.754;6.106;2024-01-25T15:54:04;11.10;99.90
12726;DHT22;6427;49.754;6.106;2024-01-25T15:56:32;11.10;99.90
12726;DHT22;6427;49.754;6.106;2024-01-25T15:58:59;11.00;99.90
12726;DHT22;6427;49.754;6.106;2024-01-25T16:01:27;10.90;99.90
12726;DHT22;6427;49.754;6.106;2024-01-25T16:03:55;11.00;99.90